METAR Data
IDs: Format: Raw Decoded Include TAF

Data at: 0643 UTC 11 Dec 2018

PAIN 110556Z AUTO 00000KT 10SM CLR M16/M17 A2870 RMK AO2 SLP764 T11561172 11072 21156 58025 FZRANO
PAIN 110456Z AUTO 00000KT 10SM CLR M14/M16 A2873 RMK AO2 SLP773 T11441161 FZRANO
PAIN 110356Z AUTO 00000KT 10SM CLR M12/M13 A2875 RMK AO2 SLP778 T11171133 FZRANO
PAIN 110256Z AUTO 22004KT 10SM CLR M11/M12 A2878 RMK AO2 SLP785 T11111122 58030 FZRANO
PAIN 110156Z AUTO 23003KT 10SM CLR M11/M12 A2881 RMK AO2 SLP798 T11111122 FZRANO
PAIN 110056Z AUTO 25003KT 10SM CLR M11/M12 A2884 RMK AO2 SLP807 T11061117 FZRANO
PAIN 102256Z AUTO 23004KT 10SM BKN048 M05/M08 A2890 RMK AO2 SLP825 T10501083 FZRANO
PAIN 102156Z AUTO VRB03KT 10SM BKN050 OVC070 M06/M09 A2891 RMK AO2 SNB07E18 SLP832 P0000 T10611094 FZRANO
PAIN 102056Z AUTO 30003KT 10SM CLR M06/M08 A2893 RMK AO2 SNB15E25 SLP836 P0000 60000 T10561083 56016 FZRANO
PAIN 101956Z AUTO 18006KT 9SM CLR M08/M10 A2894 RMK AO2 SNB41E51 SLP842 P0000 T10781100 FZRANO
PAIN 101856Z AUTO 23004KT 10SM CLR M09/M11 A2896 RMK AO2 SLP852 T10891106 FZRANO
PAIN 101756Z AUTO 26003KT 10SM FEW110 M10/M12 A2898 RMK AO2 SLP858 60000 T11001122 11078 21106 58015 FZRANO
PAIN 101656Z AUTO 00000KT 10SM CLR M09/M12 A2899 RMK AO2 SLP867 T10941117 FZRANO
PAIN 101556Z AUTO VRB03KT 10SM FEW049 M08/M11 A2901 RMK AO2 SLP873 T10831111 FZRANO
PAIN 101456Z AUTO 17004KT 10SM CLR M08/M11 A2902 RMK AO2 SLP875 60000 T10781111 56019 FZRANO
PAIN 101356Z AUTO 18006KT 10SM CLR M09/M12 A2904 RMK AO2 SNE1257 SLP881 T10941117 FZRANO
PAIN 101256Z AUTO 17007KT 130V200 9SM -SN CLR M09/M11 A2906 RMK AO2 SNB47 SLP888 P0000 T10891111 FZRANO
PAIN 101156Z AUTO 21004KT 10SM CLR M11/M13 A2908 RMK AO2 SLP896 70001 T11061128 11100 21156 58001 FZRANO
PAIN 101056Z AUTO VRB03KT 10SM CLR M12/M13 A2908 RMK AO2 SLP896 T11171133 FZRANO
PAIN 100956Z AUTO 22004KT 10SM CLR M13/M14 A2909 RMK AO2 SLP898 T11281144 FZRANO
PAIN 100856Z AUTO 22006KT 10SM CLR M13/M15 A2909 RMK AO2 SLP897 T11331150 410891200 58002 FZRANO
PAIN 100756Z AUTO 26004KT 10SM CLR M14/M16 A2910 RMK AO2 SLP900 T11391156 FZRANO
PAIN 100656Z AUTO 22006KT 10SM CLR M14/M16 A2910 RMK AO2 SLP900 T11441156 FZRANO
PAIN 100556Z AUTO 24003KT 10SM CLR M16/M17 A2909 RMK AO2 SLP898 60000 T11611167 11161 21200 51006 FZRANO
PAIN 100456Z AUTO 20003KT 10SM CLR M19/M21 A2909 RMK AO2 SLP899 T11941211 FZRANO
PAIN 100356Z AUTO 00000KT 10SM CLR M20/M22 A2908 RMK AO2 SLP898 T12001217 FZRANO
PAIN 100256Z AUTO 00000KT 10SM CLR M19/M21 A2907 RMK AO2 SNE12B30E40 SLP893 P0000 60000 T11891211 53002 FZRANO
PAIN 100156Z AUTO 20003KT 9SM -SN BKN041 OVC050 M16/M18 A2906 RMK AO2 SLP889 P0000 T11611183 FZRANO
PAIN 100056Z AUTO 00000KT 9SM -SN FEW048 M17/M18 A2906 RMK AO2 SLP888 P0000 T11671183 FZRANO
PAIN 092356Z AUTO 22003KT 9SM -SN FEW033 M16/M18 A2906 RMK AO2 SLP888 P0000 60000 T11611178 11100 21161 51008 FZRANO
PAIN 092256Z AUTO 00000KT 9SM -SN FEW021 OVC036 M15/M17 A2906 RMK AO2 SLP886 P0000 T11501167 FZRANO
PAIN 092156Z AUTO 00000KT 10SM -SN SCT028 SCT038 M14/M16 A2906 RMK AO2 SNB04E38B55 SLP884 P0000 T11391156 FZRANO
PAIN 092056Z AUTO 00000KT 10SM CLR M13/M15 A2904 RMK AO2 SNB15E37 SLP877 P0000 60000 T11331150 53008 FZRANO
PAIN 091956Z AUTO VRB03KT 10SM BKN095 M12/M14 A2903 RMK AO2 SNE27 SLP871 P0000 T11171139 FZRANO
PAIN 091856Z AUTO 36006KT 9SM -SN BKN065 OVC080 M11/M13 A2902 RMK AO2 SLP868 P0000 T11061128 FZRANO